sensor_id;sensor_type;location;lat;lon;timestamp;temperature;humidity
6843;DHT22;3460;52.028;8.916;2022-07-10T00:01:40;14.60;99.90
6843;DHT22;3460;52.028;8.916;2022-07-10T00:04:07;14.50;99.90
6843;DHT22;3460;52.028;8.916;2022-07-10T00:06:33;14.60;99.90
6843;DHT22;3460;52.028;8.916;2022-07-10T00:09:00;14.60;99.90
6843;DHT22;3460;52.028;8.916;2022-07-10T00:11:27;14.60;99.90
6843;DHT22;3460;52.028;8.916;2022-07-10T00:13:53;14.50;99.90
6843;DHT22;3460;52.028;8.916;2022-07-10T00:16:20;14.60;99.90
6843;DHT22;3460;52.028;8.916;2022-07-10T00:18:48;14.60;99.90
6843;DHT22;3460;52.028;8.916;2022-07-10T00:21:14;14.60;99.90
6843;DHT22;3460;52.028;8.916;2022-07-10T00:23:41;14.60;99.90
6843;DHT22;3460;52.028;8.916;2022-07-10T00:26:08;14.50;99.90
6843;DHT22;3460;52.028;8.916;2022-07-10T00:28:35;14.60;99.90
6843;DHT22;3460;52.028;8.916;2022-07-10T00:31:03;14.60;99.90
6843;DHT22;3460;52.028;8.916;2022-07-10T00:33:29;14.60;99.90
6843;DHT22;3460;52.028;8.916;2022-07-10T00:35:58;14.60;99.90
6843;DHT22;3460;52.028;8.916;2022-07-10T00:38:25;14.60;99.90
6843;DHT22;3460;52.028;8.916;2022-07-10T00:40:52;14.70;99.90
6843;DHT22;3460;52.028;8.916;2022-07-10T00:43:19;14.60;99.90
6843;DHT22;3460;52.028;8.916;2022-07-10T00:45:45;14.60;99.90
6843;DHT22;3460;52.028;8.916;2022-07-10T00:48:12;14.60;99.90
6843;DHT22;3460;52.028;8.916;2022-07-10T00:50:40;14.60;99.90
6843;DHT22;3460;52.028;8.916;2022-07-10T00:53:08;14.60;99.90
6843;DHT22;3460;52.028;8.916;2022-07-10T00:55:36;14.60;99.90
6843;DHT22;3460;52.028;8.916;2022-07-10T00:58:04;14.60;99.90
6843;DHT22;3460;52.028;8.916;2022-07-10T01:00:33;14.60;99.90
6843;DHT22;3460;52.028;8.916;2022-07-10T01:03:00;14.60;99.90
6843;DHT22;3460;52.028;8.916;2022-07-10T01:05:26;14.60;99.90
6843;DHT22;3460;52.028;8.916;2022-07-10T01:07:53;14.50;99.90
6843;DHT22;3460;52.028;8.916;2022-07-10T01:10:21;14.50;99.90
6843;DHT22;3460;52.028;8.916;2022-07-10T01:12:48;14.50;99.90
6843;DHT22;3460;52.028;8.916;2022-07-10T01:15:15;14.50;99.90
6843;DHT22;3460;52.028;8.916;2022-07-10T01:17:42;14.50;99.90
6843;DHT22;3460;52.028;8.916;2022-07-10T01:20:09;14.50;99.90
6843;DHT22;3460;52.028;8.916;2022-07-10T01:22:38;14.50;99.90
6843;DHT22;3460;52.028;8.916;2022-07-10T01:25:05;14.50;99.90
6843;DHT22;3460;52.028;8.916;2022-07-10T01:27:32;14.50;99.90
6843;DHT22;3460;52.028;8.916;2022-07-10T01:29:59;14.50;99.90
6843;DHT22;3460;52.028;8.916;2022-07-10T01:32:25;14.50;99.90
6843;DHT22;3460;52.028;8.916;2022-07-10T01:34:52;14.40;99.90
6843;DHT22;3460;52.028;8.916;2022-07-10T01:37:19;14.40;99.90
6843;DHT22;3460;52.028;8.916;2022-07-10T01:39:46;14.40;99.90
6843;DHT22;3460;52.028;8.916;2022-07-10T01:42:13;14.40;99.90
6843;DHT22;3460;52.028;8.916;2022-07-10T01:44:40;14.40;99.90
6843;DHT22;3460;52.028;8.916;2022-07-10T01:47:06;14.40;99.90
6843;DHT22;3460;52.028;8.916;2022-07-10T01:49:34;14.40;99.90
6843;DHT22;3460;52.028;8.916;2022-07-10T01:52:02;14.40;99.90
6843;DHT22;3460;52.028;8.916;2022-07-10T01:54:29;14.40;99.90
6843;DHT22;3460;52.028;8.916;2022-07-10T01:56:57;14.30;99.90
6843;DHT22;3460;52.028;8.916;2022-07-10T01:59:24;14.40;99.90
6843;DHT22;3460;52.028;8.916;2022-07-10T02:01:50;14.40;99.90
6843;DHT22;3460;52.028;8.916;2022-07-10T02:04:24;14.40;99.90
6843;DHT22;3460;52.028;8.916;2022-07-10T02:07:10;14.30;99.90
6843;DHT22;3460;52.028;8.916;2022-07-10T02:09:37;14.40;99.90
6843;DHT22;3460;52.028;8.916;2022-07-10T02:12:07;14.30;99.90
6843;DHT22;3460;52.028;8.916;2022-07-10T02:14:34;14.30;99.90
6843;DHT22;3460;52.028;8.916;2022-07-10T02:17:01;14.30;99.90
6843;DHT22;3460;52.028;8.916;2022-07-10T02:19:28;14.30;99.90
6843;DHT22;3460;52.028;8.916;2022-07-10T02:21:55;14.20;99.90
6843;DHT22;3460;52.028;8.916;2022-07-10T02:24:21;14.20;99.90
6843;DHT22;3460;52.028;8.916;2022-07-10T02:26:48;14.20;99.90
6843;DHT22;3460;52.028;8.916;2022-07-10T02:29:17;14.10;99.90
6843;DHT22;3460;52.028;8.916;2022-07-10T02:31:43;14.10;99.90
6843;DHT22;3460;52.028;8.916;2022-07-10T02:34:11;14.10;99.90
6843;DHT22;3460;52.028;8.916;2022-07-10T02:36:38;14.10;99.90
6843;DHT22;3460;52.028;8.916;2022-07-10T02:39:06;14.10;99.90
6843;DHT22;3460;52.028;8.916;2022-07-10T02:41:33;14.10;99.90
6843;DHT22;3460;52.028;8.916;2022-07-10T02:44:00;14.00;99.90
6843;DHT22;3460;52.028;8.916;2022-07-10T02:46:28;14.00;99.90
6843;DHT22;3460;52.028;8.916;2022-07-10T02:48:54;14.00;99.90
6843;DHT22;3460;52.028;8.916;2022-07-10T02:51:21;14.00;99.90
6843;DHT22;3460;52.028;8.916;2022-07-10T02:53:48;14.10;99.90
6843;DHT22;3460;52.028;8.916;2022-07-10T02:56:15;14.10;99.90
6843;DHT22;3460;52.028;8.916;2022-07-10T02:58:41;14.00;99.90
6843;DHT22;3460;52.028;8.916;2022-07-10T03:01:08;14.00;99.90
6843;DHT22;3460;52.028;8.916;2022-07-10T03:03:36;14.00;99.90
6843;DHT22;3460;52.028;8.916;2022-07-10T03:06:02;14.00;99.90
6843;DHT22;3460;52.028;8.916;2022-07-10T03:08:29;14.00;99.90
6843;DHT22;3460;52.028;8.916;2022-07-10T03:10:56;14.00;99.90
6843;DHT22;3460;52.028;8.916;2022-07-10T03:13:22;14.00;99.90
6843;DHT22;3460;52.028;8.916;2022-07-10T03:15:49;14.00;99.90
6843;DHT22;3460;52.028;8.916;2022-07-10T03:18:15;13.90;99.90
6843;DHT22;3460;52.028;8.916;2022-07-10T03:20:43;14.00;99.90
6843;DHT22;3460;52.028;8.916;2022-07-10T03:23:10;13.90;99.90
6843;DHT22;3460;52.028;8.916;2022-07-10T03:25:36;13.90;99.90
6843;DHT22;3460;52.028;8.916;2022-07-10T03:28:03;13.90;99.90
6843;DHT22;3460;52.028;8.916;2022-07-10T03:30:30;13.90;99.90
6843;DHT22;3460;52.028;8.916;2022-07-10T03:32:56;14.00;99.90
6843;DHT22;3460;52.028;8.916;2022-07-10T03:35:23;13.90;99.90
6843;DHT22;3460;52.028;8.916;2022-07-10T03:37:52;14.00;99.90
6843;DHT22;3460;52.028;8.916;2022-07-10T03:40:18;13.90;99.90
6843;DHT22;3460;52.028;8.916;2022-07-10T03:42:45;13.90;99.90
6843;DHT22;3460;52.028;8.916;2022-07-10T03:45:12;13.90;99.90
6843;DHT22;3460;52.028;8.916;2022-07-10T03:47:39;14.00;99.90
6843;DHT22;3460;52.028;8.916;2022-07-10T03:50:06;14.00;99.90
6843;DHT22;3460;52.028;8.916;2022-07-10T03:52:32;13.90;99.90
6843;DHT22;3460;52.028;8.916;2022-07-10T03:55:00;13.90;99.90
6843;DHT22;3460;52.028;8.916;2022-07-10T03:57:27;13.90;99.90
6843;DHT22;3460;52.028;8.916;2022-07-10T04:00:12;14.00;99.90
6843;DHT22;3460;52.028;8.916;2022-07-10T04:02:38;13.90;99.90
6843;DHT22;3460;52.028;8.916;2022-07-10T04:05:06;14.00;99.90
6843;DHT22;3460;52.028;8.916;2022-07-10T04:07:33;14.00;99.90
6843;DHT22;3460;52.028;8.916;2022-07-10T04:10:01;14.00;99.90
6843;DHT22;3460;52.028;8.916;2022-07-10T04:12:28;13.90;99.90
6843;DHT22;3460;52.028;8.916;2022-07-10T04:14:54;13.90;99.90
6843;DHT22;3460;52.028;8.916;2022-07-10T04:17:21;13.90;99.90
6843;DHT22;3460;52.028;8.916;2022-07-10T04:19:48;13.90;99.90
6843;DHT22;3460;52.028;8.916;2022-07-10T04:22:14;13.90;99.90
6843;DHT22;3460;52.028;8.916;2022-07-10T04:24:41;14.00;99.90
6843;DHT22;3460;52.028;8.916;2022-07-10T04:27:09;14.00;99.90
6843;DHT22;3460;52.028;8.916;2022-07-10T04:29:35;14.00;99.90
6843;DHT22;3460;52.028;8.916;2022-07-10T04:32:03;14.00;99.90
6843;DHT22;3460;52.028;8.916;2022-07-10T04:34:29;13.90;99.90
6843;DHT22;3460;52.028;8.916;2022-07-10T04:36:56;13.90;99.90
6843;DHT22;3460;52.028;8.916;2022-07-10T04:39:23;13.90;99.90
6843;DHT22;3460;52.028;8.916;2022-07-10T04:41:50;13.90;99.90
6843;DHT22;3460;52.028;8.916;2022-07-10T04:44:18;13.70;99.90
6843;DHT22;3460;52.028;8.916;2022-07-10T04:46:45;13.60;99.90
6843;DHT22;3460;52.028;8.916;2022-07-10T04:49:11;13.50;99.90
6843;DHT22;3460;52.028;8.916;2022-07-10T04:51:38;13.30;99.90
6843;DHT22;3460;52.028;8.916;2022-07-10T04:54:04;13.40;99.90
6843;DHT22;3460;52.028;8.916;2022-07-10T04:56:31;13.30;99.90
6843;DHT22;3460;52.028;8.916;2022-07-10T04:58:58;13.30;99.90
6843;DHT22;3460;52.028;8.916;2022-07-10T05:01:26;13.30;99.90
6843;DHT22;3460;52.028;8.916;2022-07-10T05:03:52;13.40;99.90
6843;DHT22;3460;52.028;8.916;2022-07-10T05:06:19;13.40;99.90
6843;DHT22;3460;52.028;8.916;2022-07-10T05:08:45;13.40;99.90
6843;DHT22;3460;52.028;8.916;2022-07-10T05:11:12;13.50;99.90
6843;DHT22;3460;52.028;8.916;2022-07-10T05:13:39;13.50;99.90
6843;DHT22;3460;52.028;8.916;2022-07-10T05:16:06;13.60;99.90
6843;DHT22;3460;52.028;8.916;2022-07-10T05:18:34;13.60;99.90
6843;DHT22;3460;52.028;8.916;2022-07-10T05:21:00;13.60;99.90
6843;DHT22;3460;52.028;8.916;2022-07-10T05:23:27;13.70;99.90
6843;DHT22;3460;52.028;8.916;2022-07-10T05:25:54;13.70;99.90
6843;DHT22;3460;52.028;8.916;2022-07-10T05:28:20;13.80;99.90
6843;DHT22;3460;52.028;8.916;2022-07-10T05:30:47;13.70;99.90
6843;DHT22;3460;52.028;8.916;2022-07-10T05:33:14;13.70;99.90
6843;DHT22;3460;52.028;8.916;2022-07-10T05:35:42;13.70;99.90
6843;DHT22;3460;52.028;8.916;2022-07-10T05:38:09;13.70;99.90
6843;DHT22;3460;52.028;8.916;2022-07-10T05:40:35;13.70;99.90
6843;DHT22;3460;52.028;8.916;2022-07-10T05:43:02;13.60;99.90
6843;DHT22;3460;52.028;8.916;2022-07-10T05:45:29;13.70;99.90
6843;DHT22;3460;52.028;8.916;2022-07-10T05:47:56;13.80;99.90
6843;DHT22;3460;52.028;8.916;2022-07-10T05:50:23;13.80;99.90
6843;DHT22;3460;52.028;8.916;2022-07-10T05:52:51;13.80;99.90
6843;DHT22;3460;52.028;8.916;2022-07-10T05:55:18;13.90;99.90
6843;DHT22;3460;52.028;8.916;2022-07-10T05:57:44;13.90;99.90
6843;DHT22;3460;52.028;8.916;2022-07-10T06:00:11;13.90;99.90
6843;DHT22;3460;52.028;8.916;2022-07-10T06:02:38;14.00;99.90
6843;DHT22;3460;52.028;8.916;2022-07-10T06:05:05;13.90;99.90
6843;DHT22;3460;52.028;8.916;2022-07-10T06:07:32;14.00;99.90
6843;DHT22;3460;52.028;8.916;2022-07-10T06:10:01;14.10;99.90
6843;DHT22;3460;52.028;8.916;2022-07-10T06:12:27;14.10;99.90
6843;DHT22;3460;52.028;8.916;2022-07-10T06:14:54;14.20;99.90
6843;DHT22;3460;52.028;8.916;2022-07-10T06:17:21;14.10;99.90
6843;DHT22;3460;52.028;8.916;2022-07-10T06:19:48;14.20;99.90
6843;DHT22;3460;52.028;8.916;2022-07-10T06:22:15;14.20;99.90
6843;DHT22;3460;52.028;8.916;2022-07-10T06:24:57;14.30;99.90
6843;DHT22;3460;52.028;8.916;2022-07-10T06:27:25;14.40;99.90
6843;DHT22;3460;52.028;8.916;2022-07-10T06:29:52;14.50;99.90
6843;DHT22;3460;52.028;8.916;2022-07-10T06:32:18;14.60;99.90
6843;DHT22;3460;52.028;8.916;2022-07-10T06:34:45;14.70;99.90
6843;DHT22;3460;52.028;8.916;2022-07-10T06:37:12;14.80;99.90
6843;DHT22;3460;52.028;8.916;2022-07-10T06:39:39;14.80;99.90
6843;DHT22;3460;52.028;8.916;2022-07-10T06:42:06;14.90;99.90
6843;DHT22;3460;52.028;8.916;2022-07-10T06:44:34;15.00;99.90
6843;DHT22;3460;52.028;8.916;2022-07-10T06:47:01;15.00;99.90
6843;DHT22;3460;52.028;8.916;2022-07-10T06:49:46;15.20;99.90
6843;DHT22;3460;52.028;8.916;2022-07-10T06:52:13;15.10;99.90
6843;DHT22;3460;52.028;8.916;2022-07-10T06:54:41;15.20;99.90
6843;DHT22;3460;52.028;8.916;2022-07-10T06:57:08;15.30;99.90
6843;DHT22;3460;52.028;8.916;2022-07-10T06:59:36;15.20;99.90
6843;DHT22;3460;52.028;8.916;2022-07-10T07:02:03;15.30;99.90
6843;DHT22;3460;52.028;8.916;2022-07-10T07:04:30;15.40;99.90
6843;DHT22;3460;52.028;8.916;2022-07-10T07:06:56;15.30;99.90
6843;DHT22;3460;52.028;8.916;2022-07-10T07:09:23;15.20;99.90
6843;DHT22;3460;52.028;8.916;2022-07-10T07:11:49;15.40;99.90
6843;DHT22;3460;52.028;8.916;2022-07-10T07:14:16;15.60;99.90
6843;DHT22;3460;52.028;8.916;2022-07-10T07:16:44;15.70;99.90
6843;DHT22;3460;52.028;8.916;2022-07-10T07:19:22;15.80;99.90
6843;DHT22;3460;52.028;8.916;2022-07-10T07:21:56;15.70;99.90
6843;DHT22;3460;52.028;8.916;2022-07-10T07:24:40;15.70;99.90
6843;DHT22;3460;52.028;8.916;2022-07-10T07:27:07;15.60;99.90
6843;DHT22;3460;52.028;8.916;2022-07-10T07:29:33;15.70;99.90
6843;DHT22;3460;52.028;8.916;2022-07-10T07:32:02;15.60;99.90
6843;DHT22;3460;52.028;8.916;2022-07-10T07:34:28;15.50;99.90
6843;DHT22;3460;52.028;8.916;2022-07-10T07:36:56;15.50;99.90
6843;DHT22;3460;52.028;8.916;2022-07-10T07:39:22;15.60;99.90
6843;DHT22;3460;52.028;8.916;2022-07-10T07:41:49;15.70;99.90
6843;DHT22;3460;52.028;8.916;2022-07-10T07:44:16;15.70;99.90
6843;DHT22;3460;52.028;8.916;2022-07-10T07:46:43;15.50;99.90
6843;DHT22;3460;52.028;8.916;2022-07-10T07:49:11;15.40;99.90
6843;DHT22;3460;52.028;8.916;2022-07-10T07:51:37;15.20;99.90
6843;DHT22;3460;52.028;8.916;2022-07-10T07:54:04;15.20;99.90
6843;DHT22;3460;52.028;8.916;2022-07-10T07:56:31;15.20;99.90
6843;DHT22;3460;52.028;8.916;2022-07-10T07:58:57;15.20;99.90
6843;DHT22;3460;52.028;8.916;2022-07-10T08:01:24;15.20;99.90
6843;DHT22;3460;52.028;8.916;2022-07-10T08:03:51;15.30;99.90
6843;DHT22;3460;52.028;8.916;2022-07-10T08:06:19;15.30;99.90
6843;DHT22;3460;52.028;8.916;2022-07-10T08:08:46;15.30;99.90
6843;DHT22;3460;52.028;8.916;2022-07-10T08:11:12;15.20;99.90
6843;DHT22;3460;52.028;8.916;2022-07-10T08:13:39;15.20;99.90
6843;DHT22;3460;52.028;8.916;2022-07-10T08:16:06;15.20;99.90
6843;DHT22;3460;52.028;8.916;2022-07-10T08:18:32;15.20;99.90
6843;DHT22;3460;52.028;8.916;2022-07-10T08:20:59;15.20;99.90
6843;DHT22;3460;52.028;8.916;2022-07-10T08:23:27;15.20;99.90
6843;DHT22;3460;52.028;8.916;2022-07-10T08:25:53;15.20;99.90
6843;DHT22;3460;52.028;8.916;2022-07-10T08:28:20;15.20;99.90
6843;DHT22;3460;52.028;8.916;2022-07-10T08:30:47;15.20;99.90
6843;DHT22;3460;52.028;8.916;2022-07-10T08:33:13;15.40;99.90
6843;DHT22;3460;52.028;8.916;2022-07-10T08:35:40;15.70;99.90
6843;DHT22;3460;52.028;8.916;2022-07-10T08:38:08;16.10;99.90
6843;DHT22;3460;52.028;8.916;2022-07-10T08:40:36;16.50;99.90
6843;DHT22;3460;52.028;8.916;2022-07-10T08:43:03;16.80;99.90
6843;DHT22;3460;52.028;8.916;2022-07-10T08:45:31;16.90;99.90
6843;DHT22;3460;52.028;8.916;2022-07-10T08:48:01;17.00;99.90
6843;DHT22;3460;52.028;8.916;2022-07-10T08:50:29;17.00;99.90
6843;DHT22;3460;52.028;8.916;2022-07-10T08:53:01;16.90;99.90
6843;DHT22;3460;52.028;8.916;2022-07-10T08:55:29;16.90;99.90
6843;DHT22;3460;52.028;8.916;2022-07-10T08:57:58;16.70;99.90
6843;DHT22;3460;52.028;8.916;2022-07-10T09:00:25;16.70;99.90
6843;DHT22;3460;52.028;8.916;2022-07-10T09:02:53;16.60;99.90
6843;DHT22;3460;52.028;8.916;2022-07-10T09:05:22;16.70;99.90
6843;DHT22;3460;52.028;8.916;2022-07-10T09:07:48;16.60;99.90
6843;DHT22;3460;52.028;8.916;2022-07-10T09:10:16;16.70;99.90
6843;DHT22;3460;52.028;8.916;2022-07-10T09:12:50;16.90;99.90
6843;DHT22;3460;52.028;8.916;2022-07-10T09:15:20;17.30;99.90
6843;DHT22;3460;52.028;8.916;2022-07-10T09:17:54;17.50;99.90
6843;DHT22;3460;52.028;8.916;2022-07-10T09:20:25;17.80;99.90
6843;DHT22;3460;52.028;8.916;2022-07-10T09:22:52;17.90;99.90
6843;DHT22;3460;52.028;8.916;2022-07-10T09:25:19;18.00;99.90
6843;DHT22;3460;52.028;8.916;2022-07-10T09:27:53;17.80;99.90
6843;DHT22;3460;52.028;8.916;2022-07-10T09:30:33;17.70;99.90
6843;DHT22;3460;52.028;8.916;2022-07-10T09:33:20;17.70;99.90
6843;DHT22;3460;52.028;8.916;2022-07-10T09:35:56;17.60;99.90
6843;DHT22;3460;52.028;8.916;2022-07-10T09:38:49;17.40;99.90
6843;DHT22;3460;52.028;8.916;2022-07-10T09:41:18;17.10;99.90
6843;DHT22;3460;52.028;8.916;2022-07-10T09:43:46;17.10;99.90
6843;DHT22;3460;52.028;8.916;2022-07-10T09:46:14;17.20;99.90
6843;DHT22;3460;52.028;8.916;2022-07-10T09:48:41;17.30;99.90
6843;DHT22;3460;52.028;8.916;2022-07-10T09:51:09;17.30;99.90
6843;DHT22;3460;52.028;8.916;2022-07-10T09:53:38;17.30;99.90
6843;DHT22;3460;52.028;8.916;2022-07-10T09:56:06;17.20;99.90
6843;DHT22;3460;52.028;8.916;2022-07-10T09:58:34;17.20;99.90
6843;DHT22;3460;52.028;8.916;2022-07-10T10:01:02;17.50;99.90
6843;DHT22;3460;52.028;8.916;2022-07-10T10:03:33;17.70;99.90
6843;DHT22;3460;52.028;8.916;2022-07-10T10:06:03;17.80;99.90
6843;DHT22;3460;52.028;8.916;2022-07-10T10:08:37;18.00;99.90
6843;DHT22;3460;52.028;8.916;2022-07-10T10:11:07;18.20;99.90
6843;DHT22;3460;52.028;8.916;2022-07-10T10:13:34;18.00;99.90
6843;DHT22;3460;52.028;8.916;2022-07-10T10:16:02;18.00;99.90
6843;DHT22;3460;52.028;8.916;2022-07-10T10:18:28;18.00;99.90
6843;DHT22;3460;52.028;8.916;2022-07-10T10:20:57;17.90;99.90
6843;DHT22;3460;52.028;8.916;2022-07-10T10:23:24;17.70;99.90
6843;DHT22;3460;52.028;8.916;2022-07-10T10:25:52;17.70;99.90
6843;DHT22;3460;52.028;8.916;2022-07-10T10:28:21;17.60;99.90
6843;DHT22;3460;52.028;8.916;2022-07-10T10:30:51;17.60;99.90
6843;DHT22;3460;52.028;8.916;2022-07-10T10:33:43;17.50;99.90
6843;DHT22;3460;52.028;8.916;2022-07-10T10:39:04;17.60;99.90
6843;DHT22;3460;52.028;8.916;2022-07-10T10:41:39;17.50;99.90
6843;DHT22;3460;52.028;8.916;2022-07-10T10:44:23;17.50;99.90
6843;DHT22;3460;52.028;8.916;2022-07-10T10:46:58;17.40;99.90
6843;DHT22;3460;52.028;8.916;2022-07-10T10:49:27;17.40;99.90
6843;DHT22;3460;52.028;8.916;2022-07-10T10:52:14;17.30;99.90
6843;DHT22;3460;52.028;8.916;2022-07-10T10:55:00;17.40;99.90
6843;DHT22;3460;52.028;8.916;2022-07-10T10:57:36;17.30;99.90
6843;DHT22;3460;52.028;8.916;2022-07-10T11:00:06;17.30;99.90
6843;DHT22;3460;52.028;8.916;2022-07-10T11:02:34;17.30;99.90
6843;DHT22;3460;52.028;8.916;2022-07-10T11:08:04;17.30;99.90
6843;DHT22;3460;52.028;8.916;2022-07-10T11:10:32;17.20;99.90
6843;DHT22;3460;52.028;8.916;2022-07-10T11:13:00;17.10;99.90
6843;DHT22;3460;52.028;8.916;2022-07-10T11:15:28;17.20;99.90
6843;DHT22;3460;52.028;8.916;2022-07-10T11:17:55;17.20;99.90
6843;DHT22;3460;52.028;8.916;2022-07-10T11:20:22;17.20;99.90
6843;DHT22;3460;52.028;8.916;2022-07-10T11:22:56;17.20;99.90
6843;DHT22;3460;52.028;8.916;2022-07-10T11:25:35;17.20;99.90
6843;DHT22;3460;52.028;8.916;2022-07-10T11:28:08;17.10;99.90
6843;DHT22;3460;52.028;8.916;2022-07-10T11:30:45;17.10;99.90
6843;DHT22;3460;52.028;8.916;2022-07-10T11:33:12;17.10;99.90
6843;DHT22;3460;52.028;8.916;2022-07-10T11:35:39;17.10;99.90
6843;DHT22;3460;52.028;8.916;2022-07-10T11:38:06;17.20;99.90
6843;DHT22;3460;52.028;8.916;2022-07-10T11:40:36;17.40;99.90
6843;DHT22;3460;52.028;8.916;2022-07-10T11:43:04;17.40;99.90
6843;DHT22;3460;52.028;8.916;2022-07-10T11:45:33;17.50;99.90
6843;DHT22;3460;52.028;8.916;2022-07-10T11:48:03;17.60;99.90
6843;DHT22;3460;52.028;8.916;2022-07-10T11:50:35;17.60;99.90
6843;DHT22;3460;52.028;8.916;2022-07-10T11:53:03;17.40;99.90
6843;DHT22;3460;52.028;8.916;2022-07-10T11:55:30;17.30;99.90
6843;DHT22;3460;52.028;8.916;2022-07-10T11:58:12;17.30;99.90
6843;DHT22;3460;52.028;8.916;2022-07-10T12:00:39;17.30;99.90
6843;DHT22;3460;52.028;8.916;2022-07-10T12:03:17;17.20;99.90
6843;DHT22;3460;52.028;8.916;2022-07-10T12:05:44;17.00;99.90
6843;DHT22;3460;52.028;8.916;2022-07-10T12:08:11;16.90;99.90
6843;DHT22;3460;52.028;8.916;2022-07-10T12:10:38;16.80;99.90
6843;DHT22;3460;52.028;8.916;2022-07-10T12:13:09;16.80;99.90
6843;DHT22;3460;52.028;8.916;2022-07-10T12:15:39;16.90;99.90
6843;DHT22;3460;52.028;8.916;2022-07-10T12:18:07;17.00;99.90
6843;DHT22;3460;52.028;8.916;2022-07-10T12:20:34;16.80;99.90
6843;DHT22;3460;52.028;8.916;2022-07-10T12:23:03;16.90;99.90
6843;DHT22;3460;52.028;8.916;2022-07-10T12:25:30;17.00;99.90
6843;DHT22;3460;52.028;8.916;2022-07-10T12:27:57;17.00;99.90
6843;DHT22;3460;52.028;8.916;2022-07-10T12:30:39;16.90;99.90
6843;DHT22;3460;52.028;8.916;2022-07-10T12:33:07;16.90;99.90
6843;DHT22;3460;52.028;8.916;2022-07-10T12:35:51;16.90;99.90
6843;DHT22;3460;52.028;8.916;2022-07-10T12:38:20;16.80;99.90
6843;DHT22;3460;52.028;8.916;2022-07-10T12:40:48;16.80;99.90
6843;DHT22;3460;52.028;8.916;2022-07-10T12:43:27;16.80;99.90
6843;DHT22;3460;52.028;8.916;2022-07-10T12:46:16;16.70;99.90
6843;DHT22;3460;52.028;8.916;2022-07-10T12:49:02;16.70;99.90
6843;DHT22;3460;52.028;8.916;2022-07-10T12:51:31;16.50;99.90
6843;DHT22;3460;52.028;8.916;2022-07-10T12:53:58;16.50;99.90
6843;DHT22;3460;52.028;8.916;2022-07-10T12:56:29;16.60;99.90
6843;DHT22;3460;52.028;8.916;2022-07-10T12:58:56;16.50;99.90
6843;DHT22;3460;52.028;8.916;2022-07-10T13:01:24;16.40;99.90
6843;DHT22;3460;52.028;8.916;2022-07-10T13:03:58;16.40;99.90
6843;DHT22;3460;52.028;8.916;2022-07-10T13:06:26;16.40;99.90
6843;DHT22;3460;52.028;8.916;2022-07-10T13:08:53;16.30;99.90
6843;DHT22;3460;52.028;8.916;2022-07-10T13:11:20;16.30;99.90
6843;DHT22;3460;52.028;8.916;2022-07-10T13:13:47;16.30;99.90
6843;DHT22;3460;52.028;8.916;2022-07-10T13:16:14;16.30;99.90
6843;DHT22;3460;52.028;8.916;2022-07-10T13:18:43;16.40;99.90
6843;DHT22;3460;52.028;8.916;2022-07-10T13:21:10;16.40;99.90
6843;DHT22;3460;52.028;8.916;2022-07-10T13:23:38;16.40;99.90
6843;DHT22;3460;52.028;8.916;2022-07-10T13:26:05;16.60;99.90
6843;DHT22;3460;52.028;8.916;2022-07-10T13:28:33;17.00;99.90
6843;DHT22;3460;52.028;8.916;2022-07-10T13:31:00;17.20;99.90
6843;DHT22;3460;52.028;8.916;2022-07-10T13:33:26;17.30;99.90
6843;DHT22;3460;52.028;8.916;2022-07-10T13:35:55;17.40;99.90
6843;DHT22;3460;52.028;8.916;2022-07-10T13:38:22;17.60;99.90
6843;DHT22;3460;52.028;8.916;2022-07-10T13:40:50;17.70;99.90
6843;DHT22;3460;52.028;8.916;2022-07-10T13:43:17;17.80;99.90
6843;DHT22;3460;52.028;8.916;2022-07-10T13:45:46;17.80;99.90
6843;DHT22;3460;52.028;8.916;2022-07-10T13:48:14;17.60;99.90
6843;DHT22;3460;52.028;8.916;2022-07-10T13:50:42;17.70;99.90
6843;DHT22;3460;52.028;8.916;2022-07-10T13:53:10;17.80;99.90
6843;DHT22;3460;52.028;8.916;2022-07-10T13:55:37;17.80;99.90
6843;DHT22;3460;52.028;8.916;2022-07-10T13:58:04;17.80;99.90
6843;DHT22;3460;52.028;8.916;2022-07-10T14:00:31;17.90;99.90
6843;DHT22;3460;52.028;8.916;2022-07-10T14:02:57;18.10;99.90
6843;DHT22;3460;52.028;8.916;2022-07-10T14:05:25;18.10;99.90
6843;DHT22;3460;52.028;8.916;2022-07-10T14:07:52;18.10;99.90
6843;DHT22;3460;52.028;8.916;2022-07-10T14:10:20;18.10;99.90
6843;DHT22;3460;52.028;8.916;2022-07-10T14:12:47;18.10;99.90
6843;DHT22;3460;52.028;8.916;2022-07-10T14:15:14;18.10;99.90
6843;DHT22;3460;52.028;8.916;2022-07-10T14:17:40;18.00;99.90
6843;DHT22;3460;52.028;8.916;2022-07-10T14:20:08;18.00;99.90
6843;DHT22;3460;52.028;8.916;2022-07-10T14:22:36;17.90;99.90
6843;DHT22;3460;52.028;8.916;2022-07-10T14:25:03;17.80;99.90
6843;DHT22;3460;52.028;8.916;2022-07-10T14:27:31;18.00;99.90
6843;DHT22;3460;52.028;8.916;2022-07-10T14:29:58;18.00;99.90
6843;DHT22;3460;52.028;8.916;2022-07-10T14:32:25;18.00;99.90
6843;DHT22;3460;52.028;8.916;2022-07-10T14:34:52;18.00;99.90
6843;DHT22;3460;52.028;8.916;2022-07-10T14:37:18;17.90;99.90
6843;DHT22;3460;52.028;8.916;2022-07-10T14:39:45;17.90;99.90
6843;DHT22;3460;52.028;8.916;2022-07-10T14:42:12;17.90;99.90
6843;DHT22;3460;52.028;8.916;2022-07-10T14:44:40;17.90;99.90
6843;DHT22;3460;52.028;8.916;2022-07-10T14:47:06;17.90;99.90
6843;DHT22;3460;52.028;8.916;2022-07-10T14:49:33;17.90;99.90
6843;DHT22;3460;52.028;8.916;2022-07-10T14:51:59;18.00;99.90
6843;DHT22;3460;52.028;8.916;2022-07-10T14:54:26;17.90;99.90
6843;DHT22;3460;52.028;8.916;2022-07-10T14:56:53;17.90;99.90
6843;DHT22;3460;52.028;8.916;2022-07-10T14:59:19;18.00;99.90
6843;DHT22;3460;52.028;8.916;2022-07-10T15:01:47;17.90;99.90
6843;DHT22;3460;52.028;8.916;2022-07-10T15:04:14;17.80;99.90
6843;DHT22;3460;52.028;8.916;2022-07-10T15:06:41;17.70;99.90
6843;DHT22;3460;52.028;8.916;2022-07-10T15:09:07;17.60;99.90
6843;DHT22;3460;52.028;8.916;2022-07-10T15:11:34;17.70;99.90
6843;DHT22;3460;52.028;8.916;2022-07-10T15:14:01;17.50;99.90
6843;DHT22;3460;52.028;8.916;2022-07-10T15:16:29;17.40;99.90
6843;DHT22;3460;52.028;8.916;2022-07-10T15:18:57;17.20;99.90
6843;DHT22;3460;52.028;8.916;2022-07-10T15:21:24;17.00;99.90
6843;DHT22;3460;52.028;8.916;2022-07-10T15:23:51;16.80;99.90
6843;DHT22;3460;52.028;8.916;2022-07-10T15:26:17;16.70;99.90
6843;DHT22;3460;52.028;8.916;2022-07-10T15:28:44;16.60;99.90
6843;DHT22;3460;52.028;8.916;2022-07-10T15:31:11;16.60;99.90
6843;DHT22;3460;52.028;8.916;2022-07-10T15:33:38;16.60;99.90
6843;DHT22;3460;52.028;8.916;2022-07-10T15:36:11;16.60;99.90
6843;DHT22;3460;52.028;8.916;2022-07-10T15:38:38;16.60;99.90
6843;DHT22;3460;52.028;8.916;2022-07-10T15:41:04;16.60;99.90
6843;DHT22;3460;52.028;8.916;2022-07-10T15:43:31;16.60;99.90
6843;DHT22;3460;52.028;8.916;2022-07-10T15:45:58;16.70;99.90
6843;DHT22;3460;52.028;8.916;2022-07-10T15:48:25;16.80;99.90
6843;DHT22;3460;52.028;8.916;2022-07-10T15:50:51;16.60;99.90
6843;DHT22;3460;52.028;8.916;2022-07-10T15:53:20;16.80;99.90
6843;DHT22;3460;52.028;8.916;2022-07-10T15:55:47;16.80;99.90
6843;DHT22;3460;52.028;8.916;2022-07-10T15:58:14;16.80;99.90
6843;DHT22;3460;52.028;8.916;2022-07-10T16:00:42;16.90;99.90
6843;DHT22;3460;52.028;8.916;2022-07-10T16:03:08;16.80;99.90
6843;DHT22;3460;52.028;8.916;2022-07-10T16:05:35;16.80;99.90
6843;DHT22;3460;52.028;8.916;2022-07-10T16:08:01;16.80;99.90
6843;DHT22;3460;52.028;8.916;2022-07-10T16:10:29;16.80;99.90
6843;DHT22;3460;52.028;8.916;2022-07-10T16:12:56;16.60;99.90
6843;DHT22;3460;52.028;8.916;2022-07-10T16:15:23;16.60;99.90